Forside
METAR-TAF:

METAR-TAF

Lufthavne :

Dusjanbe, Tadsjikistan

Breddekreds: 38-33N, længdekreds: 068-47E, højde: 803 m

Aktuelle vejr

Denne rapport blev lavet for 39 minutter siden, kl. 02:00 UTC
Vind 10 kt fra øst, varierende mellem østnordøst og østsydøst
Temperatur 23°C
Fugtighed 47%
Tryk 1011 hPa
Sigt 10 km eller mere

METAR: UTDD 250200Z 09005MPS 060V120 9999 NSC 23/11 Q1011 R09/D NOSIG RMK QFE690/0920

Tid: 07:39 (02:39 UTC)

Vejrudsigter

Denne rapport blev lavet for 2 timer og 39 minutter siden, kl. 00:00 UTC
Foreløbig gælder fra 25 på 01 UTC til 25 på 13 UTC
Vind 4 kt fra varierende retninger
Sigt: 6000 m
Nogle få skyer i en højde af 6600 ft, Cumulonimbus.
Spredte skyer i en højde af 10000 ft
Midlertidig
fra 25 på 07 UTC til 25 på 13 UTC
Vind 10 kt fra vest
Sandsynlighed 40% :
Midlertidig
fra 25 på 07 UTC til 25 på 13 UTC
tordenbyger

TAF: UTDD 250000Z 2501/2513 VRB02MPS 6000 FEW066CB SCT100 TEMPO 2507/2513 27005MPS PROB40 TEMPO 2507/2513 TS

Vejrobservationer og prognoser fra mere end 4000 lufthavne (METAR og TAF).

De gule og røde prikker repræsenterer de meteorologiske stationer.

Flyt musen over at se navnet på stationen.

Så klik over at se vejr observationer og prognoser.

At skifte det kort: Klik på de grønne knapper med et sort kors for at zoome ind; på den grønne knap med en bindestreg for at zoome ud; eller på de grønne pile for tilstødende kort.


METAR-TAF: